sensor_id;sensor_type;location;lat;lon;timestamp;temperature;humidity
7204;DHT22;3643;52.460;13.322;2023-06-24T00:00:09;16.30;99.90
7204;DHT22;3643;52.460;13.322;2023-06-24T00:02:39;16.30;99.90
7204;DHT22;3643;52.460;13.322;2023-06-24T00:05:11;16.30;99.90
7204;DHT22;3643;52.460;13.322;2023-06-24T00:07:39;16.30;99.90
7204;DHT22;3643;52.460;13.322;2023-06-24T00:10:13;16.30;99.90
7204;DHT22;3643;52.460;13.322;2023-06-24T00:12:45;16.30;99.90
7204;DHT22;3643;52.460;13.322;2023-06-24T00:15:15;16.40;99.90
7204;DHT22;3643;52.460;13.322;2023-06-24T00:17:43;16.40;99.90
7204;DHT22;3643;52.460;13.322;2023-06-24T00:20:12;16.30;99.90
7204;DHT22;3643;52.460;13.322;2023-06-24T00:22:42;16.40;99.90
7204;DHT22;3643;52.460;13.322;2023-06-24T00:25:11;16.40;99.90
7204;DHT22;3643;52.460;13.322;2023-06-24T00:27:41;16.30;99.90
7204;DHT22;3643;52.460;13.322;2023-06-24T00:30:11;16.30;99.90
7204;DHT22;3643;52.460;13.322;2023-06-24T00:32:41;16.30;99.90
7204;DHT22;3643;52.460;13.322;2023-06-24T00:35:10;16.20;99.90
7204;DHT22;3643;52.460;13.322;2023-06-24T00:37:39;16.20;99.90
7204;DHT22;3643;52.460;13.322;2023-06-24T00:40:08;16.20;99.90
7204;DHT22;3643;52.460;13.322;2023-06-24T00:42:45;16.10;99.90
7204;DHT22;3643;52.460;13.322;2023-06-24T00:45:13;16.10;99.90
7204;DHT22;3643;52.460;13.322;2023-06-24T00:47:44;16.10;99.90
7204;DHT22;3643;52.460;13.322;2023-06-24T00:50:14;16.00;99.90
7204;DHT22;3643;52.460;13.322;2023-06-24T00:52:43;16.00;99.90
7204;DHT22;3643;52.460;13.322;2023-06-24T00:55:12;15.90;99.90
7204;DHT22;3643;52.460;13.322;2023-06-24T00:57:42;15.90;99.90
7204;DHT22;3643;52.460;13.322;2023-06-24T01:00:11;15.90;99.90
7204;DHT22;3643;52.460;13.322;2023-06-24T01:02:41;15.90;99.90
7204;DHT22;3643;52.460;13.322;2023-06-24T01:05:12;15.80;99.90
7204;DHT22;3643;52.460;13.322;2023-06-24T01:07:42;15.80;99.90
7204;DHT22;3643;52.460;13.322;2023-06-24T01:10:11;15.80;99.90
7204;DHT22;3643;52.460;13.322;2023-06-24T01:12:41;15.80;99.90
7204;DHT22;3643;52.460;13.322;2023-06-24T01:15:11;15.70;99.90
7204;DHT22;3643;52.460;13.322;2023-06-24T01:17:44;15.70;99.90
7204;DHT22;3643;52.460;13.322;2023-06-24T01:20:22;15.70;99.90
7204;DHT22;3643;52.460;13.322;2023-06-24T01:23:14;15.70;99.90
7204;DHT22;3643;52.460;13.322;2023-06-24T01:25:59;15.60;99.90
7204;DHT22;3643;52.460;13.322;2023-06-24T01:28:44;15.60;99.90
7204;DHT22;3643;52.460;13.322;2023-06-24T01:31:29;15.60;99.90
7204;DHT22;3643;52.460;13.322;2023-06-24T01:34:06;15.50;99.90
7204;DHT22;3643;52.460;13.322;2023-06-24T01:36:38;15.50;99.90
7204;DHT22;3643;52.460;13.322;2023-06-24T01:39:09;15.40;99.90
7204;DHT22;3643;52.460;13.322;2023-06-24T01:41:42;15.40;99.90
7204;DHT22;3643;52.460;13.322;2023-06-24T01:44:14;15.40;99.90
7204;DHT22;3643;52.460;13.322;2023-06-24T01:46:46;15.40;99.90
7204;DHT22;3643;52.460;13.322;2023-06-24T01:49:19;15.40;99.90
7204;DHT22;3643;52.460;13.322;2023-06-24T01:51:49;15.30;99.90
7204;DHT22;3643;52.460;13.322;2023-06-24T01:54:18;15.30;99.90
7204;DHT22;3643;52.460;13.322;2023-06-24T01:56:50;15.20;99.90
7204;DHT22;3643;52.460;13.322;2023-06-24T01:59:21;15.20;99.90
7204;DHT22;3643;52.460;13.322;2023-06-24T02:01:52;15.20;99.90
7204;DHT22;3643;52.460;13.322;2023-06-24T02:04:21;15.10;99.90
7204;DHT22;3643;52.460;13.322;2023-06-24T02:06:52;15.20;99.90
7204;DHT22;3643;52.460;13.322;2023-06-24T02:09:22;15.10;99.90
7204;DHT22;3643;52.460;13.322;2023-06-24T02:11:53;15.10;99.90
7204;DHT22;3643;52.460;13.322;2023-06-24T02:14:21;15.10;99.90
7204;DHT22;3643;52.460;13.322;2023-06-24T02:16:52;15.10;99.90
7204;DHT22;3643;52.460;13.322;2023-06-24T02:19:24;15.00;99.90
7204;DHT22;3643;52.460;13.322;2023-06-24T02:21:55;15.00;99.90
7204;DHT22;3643;52.460;13.322;2023-06-24T02:24:24;14.90;99.90
7204;DHT22;3643;52.460;13.322;2023-06-24T02:26:54;14.90;99.90
7204;DHT22;3643;52.460;13.322;2023-06-24T02:29:23;14.80;99.90
7204;DHT22;3643;52.460;13.322;2023-06-24T02:31:55;14.80;99.90
7204;DHT22;3643;52.460;13.322;2023-06-24T02:34:23;14.70;99.90
7204;DHT22;3643;52.460;13.322;2023-06-24T02:36:52;14.70;99.90
7204;DHT22;3643;52.460;13.322;2023-06-24T02:39:20;14.70;99.90
7204;DHT22;3643;52.460;13.322;2023-06-24T02:41:49;14.60;99.90
7204;DHT22;3643;52.460;13.322;2023-06-24T02:44:18;14.60;99.90
7204;DHT22;3643;52.460;13.322;2023-06-24T02:46:47;14.50;99.90
7204;DHT22;3643;52.460;13.322;2023-06-24T02:49:18;14.50;99.90
7204;DHT22;3643;52.460;13.322;2023-06-24T02:51:48;14.50;99.90
7204;DHT22;3643;52.460;13.322;2023-06-24T02:54:17;14.40;99.90
7204;DHT22;3643;52.460;13.322;2023-06-24T02:56:45;14.40;99.90
7204;DHT22;3643;52.460;13.322;2023-06-24T02:59:15;14.40;99.90
7204;DHT22;3643;52.460;13.322;2023-06-24T03:01:43;14.30;99.90
7204;DHT22;3643;52.460;13.322;2023-06-24T03:04:13;14.30;99.90
7204;DHT22;3643;52.460;13.322;2023-06-24T03:06:44;14.30;99.90
7204;DHT22;3643;52.460;13.322;2023-06-24T03:09:12;14.30;99.90
7204;DHT22;3643;52.460;13.322;2023-06-24T03:11:42;14.30;99.90
7204;DHT22;3643;52.460;13.322;2023-06-24T03:14:10;14.30;99.90
7204;DHT22;3643;52.460;13.322;2023-06-24T03:16:39;14.30;99.90
7204;DHT22;3643;52.460;13.322;2023-06-24T03:19:07;14.30;99.90
7204;DHT22;3643;52.460;13.322;2023-06-24T03:21:36;14.30;99.90
7204;DHT22;3643;52.460;13.322;2023-06-24T03:24:06;14.30;99.90
7204;DHT22;3643;52.460;13.322;2023-06-24T03:26:35;14.30;99.90
7204;DHT22;3643;52.460;13.322;2023-06-24T03:29:03;14.30;99.90
7204;DHT22;3643;52.460;13.322;2023-06-24T03:31:32;14.30;99.90
7204;DHT22;3643;52.460;13.322;2023-06-24T03:34:01;14.30;99.90
7204;DHT22;3643;52.460;13.322;2023-06-24T03:36:29;14.30;99.90
7204;DHT22;3643;52.460;13.322;2023-06-24T03:38:57;14.40;99.90
7204;DHT22;3643;52.460;13.322;2023-06-24T03:41:27;14.40;99.90
7204;DHT22;3643;52.460;13.322;2023-06-24T03:43:55;14.40;99.90
7204;DHT22;3643;52.460;13.322;2023-06-24T03:46:24;14.50;99.90
7204;DHT22;3643;52.460;13.322;2023-06-24T03:48:52;14.50;99.90
7204;DHT22;3643;52.460;13.322;2023-06-24T03:51:21;14.50;99.90
7204;DHT22;3643;52.460;13.322;2023-06-24T03:53:49;14.50;99.90
7204;DHT22;3643;52.460;13.322;2023-06-24T03:56:18;14.60;99.90
7204;DHT22;3643;52.460;13.322;2023-06-24T03:58:48;14.70;99.90
7204;DHT22;3643;52.460;13.322;2023-06-24T04:01:16;15.00;99.90
7204;DHT22;3643;52.460;13.322;2023-06-24T04:03:46;15.40;99.90
7204;DHT22;3643;52.460;13.322;2023-06-24T04:06:14;15.60;99.90
7204;DHT22;3643;52.460;13.322;2023-06-24T04:08:42;15.50;99.90
7204;DHT22;3643;52.460;13.322;2023-06-24T04:11:11;15.40;99.90
7204;DHT22;3643;52.460;13.322;2023-06-24T04:13:40;15.20;99.90
7204;DHT22;3643;52.460;13.322;2023-06-24T04:16:09;15.20;99.90
7204;DHT22;3643;52.460;13.322;2023-06-24T04:18:37;15.20;99.90
7204;DHT22;3643;52.460;13.322;2023-06-24T04:21:06;15.20;99.90
7204;DHT22;3643;52.460;13.322;2023-06-24T04:23:34;15.40;99.90
7204;DHT22;3643;52.460;13.322;2023-06-24T04:26:02;15.40;99.90
7204;DHT22;3643;52.460;13.322;2023-06-24T04:28:31;15.60;99.90
7204;DHT22;3643;52.460;13.322;2023-06-24T04:30:59;15.60;99.90
7204;DHT22;3643;52.460;13.322;2023-06-24T04:33:28;15.70;99.90
7204;DHT22;3643;52.460;13.322;2023-06-24T04:35:56;15.90;99.90
7204;DHT22;3643;52.460;13.322;2023-06-24T04:38:25;16.00;99.90
7204;DHT22;3643;52.460;13.322;2023-06-24T04:40:53;16.10;99.90
7204;DHT22;3643;52.460;13.322;2023-06-24T04:43:22;16.20;99.90
7204;DHT22;3643;52.460;13.322;2023-06-24T04:45:50;16.10;99.90
7204;DHT22;3643;52.460;13.322;2023-06-24T04:48:22;16.30;99.90
7204;DHT22;3643;52.460;13.322;2023-06-24T04:50:52;16.40;99.90
7204;DHT22;3643;52.460;13.322;2023-06-24T04:53:21;16.60;99.90
7204;DHT22;3643;52.460;13.322;2023-06-24T04:55:50;16.70;99.90
7204;DHT22;3643;52.460;13.322;2023-06-24T04:58:18;16.80;99.90
7204;DHT22;3643;52.460;13.322;2023-06-24T05:00:46;17.00;99.90
7204;DHT22;3643;52.460;13.322;2023-06-24T05:03:14;17.10;99.90
7204;DHT22;3643;52.460;13.322;2023-06-24T05:05:43;17.30;99.90
7204;DHT22;3643;52.460;13.322;2023-06-24T05:08:12;17.60;99.90
7204;DHT22;3643;52.460;13.322;2023-06-24T05:10:40;18.50;99.90
7204;DHT22;3643;52.460;13.322;2023-06-24T05:13:08;19.00;99.90
7204;DHT22;3643;52.460;13.322;2023-06-24T05:15:37;19.80;99.90
7204;DHT22;3643;52.460;13.322;2023-06-24T05:18:05;19.80;99.90
7204;DHT22;3643;52.460;13.322;2023-06-24T05:20:33;19.50;99.90
7204;DHT22;3643;52.460;13.322;2023-06-24T05:23:01;19.20;99.90
7204;DHT22;3643;52.460;13.322;2023-06-24T05:25:31;19.20;99.90
7204;DHT22;3643;52.460;13.322;2023-06-24T05:27:59;19.50;99.90
7204;DHT22;3643;52.460;13.322;2023-06-24T05:30:28;19.60;99.90
7204;DHT22;3643;52.460;13.322;2023-06-24T05:32:56;19.50;99.90
7204;DHT22;3643;52.460;13.322;2023-06-24T05:35:24;19.60;99.90
7204;DHT22;3643;52.460;13.322;2023-06-24T05:37:52;19.60;99.90
7204;DHT22;3643;52.460;13.322;2023-06-24T05:40:20;19.30;99.90
7204;DHT22;3643;52.460;13.322;2023-06-24T05:42:50;19.10;99.90
7204;DHT22;3643;52.460;13.322;2023-06-24T05:45:19;18.80;99.90
7204;DHT22;3643;52.460;13.322;2023-06-24T05:47:47;18.50;99.90
7204;DHT22;3643;52.460;13.322;2023-06-24T05:50:15;18.40;99.90
7204;DHT22;3643;52.460;13.322;2023-06-24T05:52:44;19.10;99.90
7204;DHT22;3643;52.460;13.322;2023-06-24T05:55:12;19.80;99.90
7204;DHT22;3643;52.460;13.322;2023-06-24T05:57:40;20.30;99.90
7204;DHT22;3643;52.460;13.322;2023-06-24T06:00:11;20.60;99.90
7204;DHT22;3643;52.460;13.322;2023-06-24T06:02:39;21.10;99.90
7204;DHT22;3643;52.460;13.322;2023-06-24T06:05:08;22.20;99.90
7204;DHT22;3643;52.460;13.322;2023-06-24T06:07:36;22.10;99.90
7204;DHT22;3643;52.460;13.322;2023-06-24T06:10:07;23.40;99.90
7204;DHT22;3643;52.460;13.322;2023-06-24T06:12:35;24.20;99.90
7204;DHT22;3643;52.460;13.322;2023-06-24T06:15:04;25.20;99.90
7204;DHT22;3643;52.460;13.322;2023-06-24T06:17:34;25.90;99.90
7204;DHT22;3643;52.460;13.322;2023-06-24T06:20:02;26.60;99.90
7204;DHT22;3643;52.460;13.322;2023-06-24T06:22:31;26.30;99.90
7204;DHT22;3643;52.460;13.322;2023-06-24T06:25:05;26.00;99.90
7204;DHT22;3643;52.460;13.322;2023-06-24T06:27:34;26.00;99.90
7204;DHT22;3643;52.460;13.322;2023-06-24T06:30:03;27.10;99.90
7204;DHT22;3643;52.460;13.322;2023-06-24T06:32:32;27.90;99.90
7204;DHT22;3643;52.460;13.322;2023-06-24T06:35:01;28.60;99.90
7204;DHT22;3643;52.460;13.322;2023-06-24T06:37:30;29.10;99.90
7204;DHT22;3643;52.460;13.322;2023-06-24T06:39:58;29.40;99.90
7204;DHT22;3643;52.460;13.322;2023-06-24T06:42:26;29.90;99.90
7204;DHT22;3643;52.460;13.322;2023-06-24T06:44:55;30.00;99.80
7204;DHT22;3643;52.460;13.322;2023-06-24T06:47:23;30.60;99.90
7204;DHT22;3643;52.460;13.322;2023-06-24T06:49:51;29.50;99.70
7204;DHT22;3643;52.460;13.322;2023-06-24T06:52:21;29.50;99.50
7204;DHT22;3643;52.460;13.322;2023-06-24T06:54:49;29.90;99.60
7204;DHT22;3643;52.460;13.322;2023-06-24T06:57:17;30.60;98.60
7204;DHT22;3643;52.460;13.322;2023-06-24T06:59:46;31.50;97.40
7204;DHT22;3643;52.460;13.322;2023-06-24T07:02:16;31.20;95.70
7204;DHT22;3643;52.460;13.322;2023-06-24T07:04:44;30.50;96.30
7204;DHT22;3643;52.460;13.322;2023-06-24T07:07:14;30.80;96.00
7204;DHT22;3643;52.460;13.322;2023-06-24T07:09:44;31.50;96.70
7204;DHT22;3643;52.460;13.322;2023-06-24T07:12:13;31.60;96.20
7204;DHT22;3643;52.460;13.322;2023-06-24T07:14:41;31.50;94.50
7204;DHT22;3643;52.460;13.322;2023-06-24T07:17:09;31.90;95.40
7204;DHT22;3643;52.460;13.322;2023-06-24T07:19:38;30.90;95.50
7204;DHT22;3643;52.460;13.322;2023-06-24T07:22:06;31.60;94.50
7204;DHT22;3643;52.460;13.322;2023-06-24T07:24:34;31.70;94.20
7204;DHT22;3643;52.460;13.322;2023-06-24T07:27:04;32.10;94.40
7204;DHT22;3643;52.460;13.322;2023-06-24T07:29:33;32.40;94.80
7204;DHT22;3643;52.460;13.322;2023-06-24T07:32:01;31.60;94.80
7204;DHT22;3643;52.460;13.322;2023-06-24T07:34:29;31.60;94.30
7204;DHT22;3643;52.460;13.322;2023-06-24T07:36:58;31.30;94.00
7204;DHT22;3643;52.460;13.322;2023-06-24T07:39:40;31.70;93.40
7204;DHT22;3643;52.460;13.322;2023-06-24T07:42:10;31.90;93.20
7204;DHT22;3643;52.460;13.322;2023-06-24T07:44:38;31.40;93.50
7204;DHT22;3643;52.460;13.322;2023-06-24T07:47:07;31.20;93.90
7204;DHT22;3643;52.460;13.322;2023-06-24T07:49:35;31.30;92.90
7204;DHT22;3643;52.460;13.322;2023-06-24T07:52:04;30.40;94.40
7204;DHT22;3643;52.460;13.322;2023-06-24T07:54:33;31.50;93.80
7204;DHT22;3643;52.460;13.322;2023-06-24T07:57:02;31.00;92.80
7204;DHT22;3643;52.460;13.322;2023-06-24T07:59:32;30.20;93.80
7204;DHT22;3643;52.460;13.322;2023-06-24T08:02:00;28.60;94.90
7204;DHT22;3643;52.460;13.322;2023-06-24T08:04:29;29.40;94.60
7204;DHT22;3643;52.460;13.322;2023-06-24T08:06:57;29.40;95.30
7204;DHT22;3643;52.460;13.322;2023-06-24T08:09:26;29.10;95.20
7204;DHT22;3643;52.460;13.322;2023-06-24T08:11:54;28.70;95.90
7204;DHT22;3643;52.460;13.322;2023-06-24T08:14:23;29.30;95.20
7204;DHT22;3643;52.460;13.322;2023-06-24T08:16:54;29.20;94.90
7204;DHT22;3643;52.460;13.322;2023-06-24T08:19:22;29.40;94.90
7204;DHT22;3643;52.460;13.322;2023-06-24T08:21:50;28.50;94.90
7204;DHT22;3643;52.460;13.322;2023-06-24T08:24:18;27.50;95.80
7204;DHT22;3643;52.460;13.322;2023-06-24T08:26:47;27.40;96.40
7204;DHT22;3643;52.460;13.322;2023-06-24T08:29:15;28.10;96.50
7204;DHT22;3643;52.460;13.322;2023-06-24T08:31:43;28.60;95.70
7204;DHT22;3643;52.460;13.322;2023-06-24T08:34:13;27.70;95.40
7204;DHT22;3643;52.460;13.322;2023-06-24T08:36:41;26.60;96.80
7204;DHT22;3643;52.460;13.322;2023-06-24T08:39:10;26.80;96.80
7204;DHT22;3643;52.460;13.322;2023-06-24T08:41:38;27.90;96.30
7204;DHT22;3643;52.460;13.322;2023-06-24T08:44:09;28.70;95.00
7204;DHT22;3643;52.460;13.322;2023-06-24T08:46:38;29.30;94.30
7204;DHT22;3643;52.460;13.322;2023-06-24T08:49:12;29.70;93.80
7204;DHT22;3643;52.460;13.322;2023-06-24T08:51:46;30.10;93.60
7204;DHT22;3643;52.460;13.322;2023-06-24T08:54:20;31.20;93.30
7204;DHT22;3643;52.460;13.322;2023-06-24T08:56:49;30.60;92.50
7204;DHT22;3643;52.460;13.322;2023-06-24T08:59:17;30.20;93.70
7204;DHT22;3643;52.460;13.322;2023-06-24T09:01:47;30.00;92.60
7204;DHT22;3643;52.460;13.322;2023-06-24T09:04:16;28.90;93.00
7204;DHT22;3643;52.460;13.322;2023-06-24T09:06:46;27.90;94.30
7204;DHT22;3643;52.460;13.322;2023-06-24T09:09:18;27.40;95.00
7204;DHT22;3643;52.460;13.322;2023-06-24T09:11:54;26.80;95.70
7204;DHT22;3643;52.460;13.322;2023-06-24T09:14:24;26.20;95.80
7204;DHT22;3643;52.460;13.322;2023-06-24T09:16:53;25.30;95.90
7204;DHT22;3643;52.460;13.322;2023-06-24T09:19:22;24.60;96.70
7204;DHT22;3643;52.460;13.322;2023-06-24T09:21:52;24.50;97.40
7204;DHT22;3643;52.460;13.322;2023-06-24T09:24:21;24.40;97.80
7204;DHT22;3643;52.460;13.322;2023-06-24T09:26:49;23.80;97.60
7204;DHT22;3643;52.460;13.322;2023-06-24T09:29:17;23.80;97.90
7204;DHT22;3643;52.460;13.322;2023-06-24T09:31:47;23.80;98.40
7204;DHT22;3643;52.460;13.322;2023-06-24T09:34:16;23.70;98.40
7204;DHT22;3643;52.460;13.322;2023-06-24T09:36:45;23.30;98.90
7204;DHT22;3643;52.460;13.322;2023-06-24T09:39:15;23.30;99.00
7204;DHT22;3643;52.460;13.322;2023-06-24T09:41:55;23.20;98.80
7204;DHT22;3643;52.460;13.322;2023-06-24T09:44:24;23.00;98.60
7204;DHT22;3643;52.460;13.322;2023-06-24T09:46:53;22.80;98.90
7204;DHT22;3643;52.460;13.322;2023-06-24T09:49:23;22.60;98.30
7204;DHT22;3643;52.460;13.322;2023-06-24T09:51:55;22.60;98.60
7204;DHT22;3643;52.460;13.322;2023-06-24T09:54:27;22.80;99.00
7204;DHT22;3643;52.460;13.322;2023-06-24T09:57:02;22.60;98.50
7204;DHT22;3643;52.460;13.322;2023-06-24T09:59:31;22.50;98.10
7204;DHT22;3643;52.460;13.322;2023-06-24T10:02:02;22.40;98.20
7204;DHT22;3643;52.460;13.322;2023-06-24T10:04:31;22.40;99.00
7204;DHT22;3643;52.460;13.322;2023-06-24T10:07:00;22.40;99.40
7204;DHT22;3643;52.460;13.322;2023-06-24T10:09:31;22.10;98.80
7204;DHT22;3643;52.460;13.322;2023-06-24T10:11:59;22.30;98.80
7204;DHT22;3643;52.460;13.322;2023-06-24T10:14:28;22.20;99.50
7204;DHT22;3643;52.460;13.322;2023-06-24T10:17:02;22.30;99.90
7204;DHT22;3643;52.460;13.322;2023-06-24T10:19:37;22.20;99.30
7204;DHT22;3643;52.460;13.322;2023-06-24T10:22:08;22.00;99.60
7204;DHT22;3643;52.460;13.322;2023-06-24T10:24:40;22.00;99.90
7204;DHT22;3643;52.460;13.322;2023-06-24T10:27:14;22.00;99.80
7204;DHT22;3643;52.460;13.322;2023-06-24T10:29:45;22.10;99.50
7204;DHT22;3643;52.460;13.322;2023-06-24T10:32:14;22.20;99.90
7204;DHT22;3643;52.460;13.322;2023-06-24T10:34:43;22.40;99.90
7204;DHT22;3643;52.460;13.322;2023-06-24T10:37:13;22.40;99.90
7204;DHT22;3643;52.460;13.322;2023-06-24T10:39:47;22.30;99.90
7204;DHT22;3643;52.460;13.322;2023-06-24T10:45:19;22.50;99.90
7204;DHT22;3643;52.460;13.322;2023-06-24T10:47:49;22.60;99.90
7204;DHT22;3643;52.460;13.322;2023-06-24T10:50:20;22.70;99.90
7204;DHT22;3643;52.460;13.322;2023-06-24T10:52:52;22.70;99.90
7204;DHT22;3643;52.460;13.322;2023-06-24T10:55:24;22.70;99.90
7204;DHT22;3643;52.460;13.322;2023-06-24T10:57:53;22.80;99.90
7204;DHT22;3643;52.460;13.322;2023-06-24T11:00:21;22.80;99.90
7204;DHT22;3643;52.460;13.322;2023-06-24T11:02:50;22.70;99.90
7204;DHT22;3643;52.460;13.322;2023-06-24T11:05:18;22.70;99.90
7204;DHT22;3643;52.460;13.322;2023-06-24T11:07:47;22.80;99.80
7204;DHT22;3643;52.460;13.322;2023-06-24T11:10:15;22.80;99.70
7204;DHT22;3643;52.460;13.322;2023-06-24T11:12:45;23.00;99.90
7204;DHT22;3643;52.460;13.322;2023-06-24T11:15:14;23.10;99.90
7204;DHT22;3643;52.460;13.322;2023-06-24T11:17:42;23.00;99.60
7204;DHT22;3643;52.460;13.322;2023-06-24T11:20:12;23.10;99.50
7204;DHT22;3643;52.460;13.322;2023-06-24T11:22:42;23.10;99.70
7204;DHT22;3643;52.460;13.322;2023-06-24T11:25:20;23.10;99.90
7204;DHT22;3643;52.460;13.322;2023-06-24T11:27:51;23.40;99.60
7204;DHT22;3643;52.460;13.322;2023-06-24T11:30:20;23.20;99.90
7204;DHT22;3643;52.460;13.322;2023-06-24T11:32:49;23.20;99.50
7204;DHT22;3643;52.460;13.322;2023-06-24T11:35:17;23.20;99.30
7204;DHT22;3643;52.460;13.322;2023-06-24T11:37:47;23.20;99.30
7204;DHT22;3643;52.460;13.322;2023-06-24T11:40:18;23.20;99.10
7204;DHT22;3643;52.460;13.322;2023-06-24T11:42:48;23.20;98.90
7204;DHT22;3643;52.460;13.322;2023-06-24T11:45:21;23.20;98.20
7204;DHT22;3643;52.460;13.322;2023-06-24T11:47:50;23.30;97.90
7204;DHT22;3643;52.460;13.322;2023-06-24T11:50:18;23.30;98.30
7204;DHT22;3643;52.460;13.322;2023-06-24T11:52:54;23.20;98.20
7204;DHT22;3643;52.460;13.322;2023-06-24T11:55:23;23.30;98.50
7204;DHT22;3643;52.460;13.322;2023-06-24T11:57:55;23.40;98.50
7204;DHT22;3643;52.460;13.322;2023-06-24T12:00:26;23.40;98.60
7204;DHT22;3643;52.460;13.322;2023-06-24T12:02:56;23.50;98.20
7204;DHT22;3643;52.460;13.322;2023-06-24T12:05:27;23.60;98.00
7204;DHT22;3643;52.460;13.322;2023-06-24T12:07:57;23.50;97.50
7204;DHT22;3643;52.460;13.322;2023-06-24T12:10:26;23.60;96.90
7204;DHT22;3643;52.460;13.322;2023-06-24T12:12:56;23.50;97.20
7204;DHT22;3643;52.460;13.322;2023-06-24T12:15:26;23.60;97.10
7204;DHT22;3643;52.460;13.322;2023-06-24T12:17:55;23.60;96.80
7204;DHT22;3643;52.460;13.322;2023-06-24T12:20:24;23.60;96.20
7204;DHT22;3643;52.460;13.322;2023-06-24T12:22:58;23.70;96.40
7204;DHT22;3643;52.460;13.322;2023-06-24T12:25:26;23.70;96.40
7204;DHT22;3643;52.460;13.322;2023-06-24T12:27:55;23.80;97.00
7204;DHT22;3643;52.460;13.322;2023-06-24T12:30:23;23.90;97.20
7204;DHT22;3643;52.460;13.322;2023-06-24T12:32:53;24.00;97.10
7204;DHT22;3643;52.460;13.322;2023-06-24T12:35:22;24.10;97.30
7204;DHT22;3643;52.460;13.322;2023-06-24T12:37:52;24.10;97.00
7204;DHT22;3643;52.460;13.322;2023-06-24T12:40:20;24.10;96.50
7204;DHT22;3643;52.460;13.322;2023-06-24T12:42:49;24.10;96.70
7204;DHT22;3643;52.460;13.322;2023-06-24T12:45:17;24.10;96.90
7204;DHT22;3643;52.460;13.322;2023-06-24T12:47:46;24.10;97.10
7204;DHT22;3643;52.460;13.322;2023-06-24T12:50:16;24.20;97.00
7204;DHT22;3643;52.460;13.322;2023-06-24T12:52:44;24.30;96.80
7204;DHT22;3643;52.460;13.322;2023-06-24T12:55:13;24.30;97.20
7204;DHT22;3643;52.460;13.322;2023-06-24T12:57:44;24.30;97.40
7204;DHT22;3643;52.460;13.322;2023-06-24T13:00:13;24.30;97.30
7204;DHT22;3643;52.460;13.322;2023-06-24T13:02:41;24.40;97.60
7204;DHT22;3643;52.460;13.322;2023-06-24T13:05:10;24.40;96.80
7204;DHT22;3643;52.460;13.322;2023-06-24T13:07:39;24.20;96.80
7204;DHT22;3643;52.460;13.322;2023-06-24T13:10:09;24.20;97.40
7204;DHT22;3643;52.460;13.322;2023-06-24T13:12:37;24.30;97.70
7204;DHT22;3643;52.460;13.322;2023-06-24T13:15:07;24.20;97.70
7204;DHT22;3643;52.460;13.322;2023-06-24T13:17:36;24.30;97.50
7204;DHT22;3643;52.460;13.322;2023-06-24T13:20:06;24.50;97.20
7204;DHT22;3643;52.460;13.322;2023-06-24T13:22:35;24.40;97.60
7204;DHT22;3643;52.460;13.322;2023-06-24T13:25:06;24.60;97.30
7204;DHT22;3643;52.460;13.322;2023-06-24T13:27:34;24.60;96.80
7204;DHT22;3643;52.460;13.322;2023-06-24T13:30:07;24.80;96.60
7204;DHT22;3643;52.460;13.322;2023-06-24T13:32:36;24.70;97.10
7204;DHT22;3643;52.460;13.322;2023-06-24T13:35:06;24.70;96.90
7204;DHT22;3643;52.460;13.322;2023-06-24T13:37:34;24.70;97.10
7204;DHT22;3643;52.460;13.322;2023-06-24T13:40:06;24.70;97.30
7204;DHT22;3643;52.460;13.322;2023-06-24T13:42:34;24.70;97.40
7204;DHT22;3643;52.460;13.322;2023-06-24T13:45:03;24.80;97.00
7204;DHT22;3643;52.460;13.322;2023-06-24T13:47:32;24.80;96.90
7204;DHT22;3643;52.460;13.322;2023-06-24T13:50:00;24.70;97.20
7204;DHT22;3643;52.460;13.322;2023-06-24T13:52:29;24.70;97.30
7204;DHT22;3643;52.460;13.322;2023-06-24T13:54:57;24.80;97.60
7204;DHT22;3643;52.460;13.322;2023-06-24T13:57:27;24.90;96.40
7204;DHT22;3643;52.460;13.322;2023-06-24T13:59:55;24.80;96.60
7204;DHT22;3643;52.460;13.322;2023-06-24T14:02:23;24.80;96.70
7204;DHT22;3643;52.460;13.322;2023-06-24T14:04:52;24.80;96.70
7204;DHT22;3643;52.460;13.322;2023-06-24T14:07:20;24.90;96.70
7204;DHT22;3643;52.460;13.322;2023-06-24T14:09:49;25.00;96.70
7204;DHT22;3643;52.460;13.322;2023-06-24T14:12:17;25.00;96.80
7204;DHT22;3643;52.460;13.322;2023-06-24T14:14:48;25.00;97.00
7204;DHT22;3643;52.460;13.322;2023-06-24T14:17:17;25.10;96.80
7204;DHT22;3643;52.460;13.322;2023-06-24T14:19:45;24.60;96.50
7204;DHT22;3643;52.460;13.322;2023-06-24T14:22:14;25.20;95.80
7204;DHT22;3643;52.460;13.322;2023-06-24T14:24:44;25.20;96.00
7204;DHT22;3643;52.460;13.322;2023-06-24T14:27:12;25.20;96.00
7204;DHT22;3643;52.460;13.322;2023-06-24T14:29:41;25.30;95.80
7204;DHT22;3643;52.460;13.322;2023-06-24T14:32:10;25.30;95.20
7204;DHT22;3643;52.460;13.322;2023-06-24T14:34:39;25.20;95.20
7204;DHT22;3643;52.460;13.322;2023-06-24T14:37:07;25.20;94.90
7204;DHT22;3643;52.460;13.322;2023-06-24T14:39:35;25.30;95.10
7204;DHT22;3643;52.460;13.322;2023-06-24T14:42:04;25.30;95.50
7204;DHT22;3643;52.460;13.322;2023-06-24T14:44:33;25.40;95.50
7204;DHT22;3643;52.460;13.322;2023-06-24T14:47:01;25.30;95.70
7204;DHT22;3643;52.460;13.322;2023-06-24T14:49:31;25.30;95.80
7204;DHT22;3643;52.460;13.322;2023-06-24T14:51:59;25.50;95.30
7204;DHT22;3643;52.460;13.322;2023-06-24T14:54:27;25.60;95.70
7204;DHT22;3643;52.460;13.322;2023-06-24T14:56:55;25.60;95.80
7204;DHT22;3643;52.460;13.322;2023-06-24T14:59:24;25.60;95.60
7204;DHT22;3643;52.460;13.322;2023-06-24T15:01:52;25.50;94.80
7204;DHT22;3643;52.460;13.322;2023-06-24T15:04:21;25.50;94.80
7204;DHT22;3643;52.460;13.322;2023-06-24T15:06:51;25.50;95.20
7204;DHT22;3643;52.460;13.322;2023-06-24T15:09:21;25.60;95.60
7204;DHT22;3643;52.460;13.322;2023-06-24T15:11:49;25.80;95.30
7204;DHT22;3643;52.460;13.322;2023-06-24T15:14:18;25.80;95.30
7204;DHT22;3643;52.460;13.322;2023-06-24T15:16:46;25.90;95.20
7204;DHT22;3643;52.460;13.322;2023-06-24T15:19:15;25.80;95.20
7204;DHT22;3643;52.460;13.322;2023-06-24T15:21:43;25.90;95.50
7204;DHT22;3643;52.460;13.322;2023-06-24T15:24:12;25.90;95.20
7204;DHT22;3643;52.460;13.322;2023-06-24T15:26:41;25.90;95.20
7204;DHT22;3643;52.460;13.322;2023-06-24T15:29:09;26.00;95.30
7204;DHT22;3643;52.460;13.322;2023-06-24T15:31:37;26.00;95.10
7204;DHT22;3643;52.460;13.322;2023-06-24T15:34:06;25.90;95.20
7204;DHT22;3643;52.460;13.322;2023-06-24T15:36:34;25.60;94.90
7204;DHT22;3643;52.460;13.322;2023-06-24T15:39:02;25.30;95.30
7204;DHT22;3643;52.460;13.322;2023-06-24T15:41:32;25.20;95.80
7204;DHT22;3643;52.460;13.322;2023-06-24T15:44:05;25.10;95.60
7204;DHT22;3643;52.460;13.322;2023-06-24T15:46:33;25.00;95.70
7204;DHT22;3643;52.460;13.322;2023-06-24T15:49:01;24.90;95.90
7204;DHT22;3643;52.460;13.322;2023-06-24T15:51:30;24.80;95.80
7204;DHT22;3643;52.460;13.322;2023-06-24T15:53:58;24.70;95.70
7204;DHT22;3643;52.460;13.322;2023-06-24T15:56:26;24.60;95.70
7204;DHT22;3643;52.460;13.322;2023-06-24T15:58:56;24.60;95.20
7204;DHT22;3643;52.460;13.322;2023-06-24T16:01:24;24.60;95.50